createdAt,value
2023-02-28T00:00:40.133Z,7.00
2023-02-28T00:01:40.299Z,8.40
2023-02-28T00:02:40.473Z,6.90
2023-02-28T00:03:40.714Z,5.20
2023-02-28T00:04:40.809Z,6.70
2023-02-28T00:05:40.981Z,5.30
2023-02-28T00:06:41.168Z,7.60
2023-02-28T00:07:41.300Z,4.60
2023-02-28T00:08:41.486Z,6.90
2023-02-28T00:09:41.649Z,6.40
2023-02-28T00:10:41.828Z,6.00
2023-02-28T00:11:42.010Z,5.50
2023-02-28T00:12:42.172Z,7.10
2023-02-28T00:13:42.339Z,8.00
2023-02-28T00:14:42.511Z,5.70
2023-02-28T00:15:42.678Z,6.50
2023-02-28T00:16:42.886Z,6.20
2023-02-28T00:17:43.039Z,4.80
2023-02-28T00:18:43.214Z,5.20
2023-02-28T00:19:43.370Z,9.00
2023-02-28T00:20:43.555Z,5.80
2023-02-28T00:21:43.732Z,5.60
2023-02-28T00:22:43.901Z,6.40
2023-02-28T00:23:44.061Z,6.90
2023-02-28T00:24:44.248Z,6.90
2023-02-28T00:25:44.409Z,6.30
2023-02-28T00:26:44.579Z,5.60
2023-02-28T00:27:44.760Z,6.60
2023-02-28T00:28:44.936Z,7.10
2023-02-28T00:29:45.099Z,7.10
2023-02-28T00:30:45.318Z,6.80
2023-02-28T00:31:45.484Z,6.30
2023-02-28T00:32:45.637Z,6.30
2023-02-28T00:33:45.812Z,5.50
2023-02-28T00:34:45.974Z,6.80
2023-02-28T00:35:46.183Z,7.60
2023-02-28T00:36:46.329Z,6.80
2023-02-28T00:37:46.486Z,8.50
2023-02-28T00:38:46.655Z,8.10
2023-02-28T00:39:46.826Z,5.90
2023-02-28T00:40:46.994Z,6.40
2023-02-28T00:41:47.175Z,6.00
2023-02-28T00:42:47.344Z,7.90
2023-02-28T00:43:47.512Z,5.70
2023-02-28T00:44:47.678Z,8.60
2023-02-28T00:45:47.858Z,6.40
2023-02-28T00:46:48.062Z,7.50
2023-02-28T00:47:48.193Z,7.70
2023-02-28T00:48:48.378Z,7.50
2023-02-28T00:49:48.535Z,5.40
2023-02-28T00:50:48.705Z,8.70
2023-02-28T00:51:48.893Z,5.50
2023-02-28T00:52:49.067Z,8.40
2023-02-28T00:53:49.211Z,9.00
2023-02-28T00:54:49.392Z,7.20
2023-02-28T00:55:49.562Z,8.00
2023-02-28T00:56:49.743Z,6.70
2023-02-28T00:57:49.920Z,7.60
2023-02-28T00:58:50.101Z,10.00
2023-02-28T00:59:50.255Z,10.60
2023-02-28T01:00:50.558Z,5.40
2023-02-28T01:01:50.640Z,7.00
2023-02-28T01:02:50.775Z,7.30
2023-02-28T01:03:50.950Z,8.60
2023-02-28T01:04:51.163Z,9.10
2023-02-28T01:05:51.294Z,7.00
2023-02-28T01:06:51.462Z,8.10
2023-02-28T01:07:51.638Z,6.70
2023-02-28T01:08:51.810Z,7.10
2023-02-28T01:09:51.981Z,6.50
2023-02-28T01:10:52.183Z,8.50
2023-02-28T01:11:52.320Z,7.30
2023-02-28T01:12:52.512Z,7.40
2023-02-28T01:13:52.682Z,8.30
2023-02-28T01:14:52.852Z,6.40
2023-02-28T01:15:53.180Z,8.20
2023-02-28T01:16:53.189Z,6.60
2023-02-28T01:17:53.368Z,7.20
2023-02-28T01:18:53.538Z,8.70
2023-02-28T01:19:53.739Z,6.60
2023-02-28T01:20:53.878Z,8.80
2023-02-28T01:21:54.058Z,8.60
2023-02-28T01:22:54.237Z,6.50
2023-02-28T01:23:54.411Z,7.20
2023-02-28T01:24:54.579Z,7.70
2023-02-28T01:25:54.746Z,7.00
2023-02-28T01:26:54.912Z,6.60
2023-02-28T01:27:55.099Z,7.60
2023-02-28T01:28:55.294Z,8.10
2023-02-28T01:29:55.428Z,5.60
2023-02-28T01:30:55.612Z,6.50
2023-02-28T01:31:55.833Z,7.80
2023-02-28T01:32:55.944Z,7.90
2023-02-28T01:33:56.107Z,8.00
2023-02-28T01:34:56.290Z,7.90
2023-02-28T01:35:56.474Z,7.00
2023-02-28T01:36:56.620Z,5.00
2023-02-28T01:38:02.841Z,10.00
2023-02-28T01:38:57.967Z,8.20
2023-02-28T01:39:57.117Z,8.80
2023-02-28T01:40:57.285Z,6.70
2023-02-28T01:41:57.464Z,7.20
2023-02-28T01:42:57.643Z,8.50
2023-02-28T01:43:57.807Z,6.80
2023-02-28T01:44:57.994Z,4.80
2023-02-28T01:45:58.170Z,7.40
2023-02-28T01:46:58.323Z,4.50
2023-02-28T01:47:58.504Z,5.30
2023-02-28T01:48:58.678Z,7.20
2023-02-28T01:49:58.853Z,5.50
2023-02-28T01:50:59.012Z,7.50
2023-02-28T01:51:59.209Z,6.10
2023-02-28T01:52:59.371Z,4.70
2023-02-28T01:53:59.541Z,9.10
2023-02-28T01:54:59.714Z,7.70
2023-02-28T01:55:59.889Z,6.10
2023-02-28T01:57:00.051Z,8.60
2023-02-28T01:58:00.240Z,7.20
2023-02-28T01:59:00.437Z,8.40
2023-02-28T02:00:00.597Z,7.00
2023-02-28T02:01:00.760Z,6.80
2023-02-28T02:02:00.984Z,5.10
2023-02-28T02:03:01.191Z,5.50
2023-02-28T02:04:01.290Z,4.90
2023-02-28T02:05:01.478Z,7.10
2023-02-28T02:06:01.640Z,7.50
2023-02-28T02:07:01.804Z,8.60
2023-02-28T02:08:01.998Z,10.70
2023-02-28T02:09:02.154Z,5.90
2023-02-28T02:10:02.332Z,7.90
2023-02-28T02:11:02.486Z,8.60
2023-02-28T02:12:02.660Z,8.30
2023-02-28T02:13:02.840Z,11.40
2023-02-28T02:14:03.018Z,7.60
2023-02-28T02:15:03.183Z,8.30
2023-02-28T02:16:03.419Z,6.00
2023-02-28T02:17:03.557Z,6.10
2023-02-28T02:18:03.748Z,4.40
2023-02-28T02:19:03.909Z,8.40
2023-02-28T02:20:04.087Z,8.80
2023-02-28T02:21:04.261Z,7.70
2023-02-28T02:22:04.432Z,7.50
2023-02-28T02:23:04.611Z,5.20
2023-02-28T02:24:04.776Z,5.40
2023-02-28T02:25:04.947Z,8.20
2023-02-28T02:26:05.115Z,5.70
2023-02-28T02:27:05.284Z,5.50
2023-02-28T02:28:05.465Z,7.20
2023-02-28T02:29:05.637Z,7.30
2023-02-28T02:30:05.808Z,5.90
2023-02-28T02:31:06.021Z,5.20
2023-02-28T02:32:06.190Z,5.10
2023-02-28T02:33:06.333Z,6.30
2023-02-28T02:34:06.507Z,9.00
2023-02-28T02:35:06.682Z,7.30
2023-02-28T02:36:06.853Z,5.00
2023-02-28T02:37:07.030Z,5.40
2023-02-28T02:38:07.215Z,6.10
2023-02-28T02:39:07.388Z,4.80
2023-02-28T02:40:07.572Z,6.60
2023-02-28T02:41:07.723Z,7.80
2023-02-28T02:42:07.894Z,5.10
2023-02-28T02:43:08.077Z,8.60
2023-02-28T02:44:08.243Z,5.20
2023-02-28T02:45:08.427Z,5.00
2023-02-28T02:46:08.593Z,4.90
2023-02-28T02:47:08.753Z,5.30
2023-02-28T02:48:08.944Z,6.00
2023-02-28T02:49:09.105Z,6.70
2023-02-28T02:50:09.279Z,4.80
2023-02-28T02:51:09.444Z,7.20
2023-02-28T02:52:09.611Z,5.20
2023-02-28T02:53:09.802Z,6.20
2023-02-28T02:54:09.975Z,5.10
2023-02-28T02:55:10.132Z,5.90
2023-02-28T02:56:10.332Z,6.00
2023-02-28T02:57:10.486Z,6.70
2023-02-28T02:58:10.677Z,5.00
2023-02-28T02:59:10.834Z,7.80
2023-02-28T03:00:11.044Z,5.00
2023-02-28T03:01:11.244Z,6.50
2023-02-28T03:02:11.359Z,8.30
2023-02-28T03:03:11.521Z,5.10
2023-02-28T03:04:11.710Z,4.40
2023-02-28T03:05:11.873Z,9.70
2023-02-28T03:06:12.044Z,3.60
2023-02-28T03:07:12.211Z,5.00
2023-02-28T03:08:12.394Z,4.30
2023-02-28T03:09:12.565Z,4.80
2023-02-28T03:10:12.736Z,4.20
2023-02-28T03:11:12.901Z,8.10
2023-02-28T03:12:13.071Z,4.20
2023-02-28T03:13:13.268Z,6.10
2023-02-28T03:14:13.401Z,6.60
2023-02-28T03:15:13.572Z,4.80
2023-02-28T03:16:13.792Z,6.60
2023-02-28T03:17:13.910Z,5.30
2023-02-28T03:18:14.103Z,5.60
2023-02-28T03:19:14.262Z,7.50
2023-02-28T03:20:14.431Z,5.10
2023-02-28T03:21:14.592Z,7.30
2023-02-28T03:22:14.761Z,8.40
2023-02-28T03:23:14.952Z,4.70
2023-02-28T03:24:15.126Z,3.60
2023-02-28T03:25:15.292Z,6.10
2023-02-28T03:26:15.462Z,5.50
2023-02-28T03:27:15.624Z,5.40
2023-02-28T03:28:15.815Z,4.40
2023-02-28T03:29:15.953Z,4.40
2023-02-28T03:30:16.140Z,7.50
2023-02-28T03:31:16.329Z,5.30
2023-02-28T03:32:16.545Z,4.20
2023-02-28T03:33:16.671Z,7.20
2023-02-28T03:34:16.853Z,10.80
2023-02-28T03:35:17.039Z,5.10
2023-02-28T03:36:17.202Z,5.60
2023-02-28T03:37:17.483Z,6.70
2023-02-28T03:38:17.573Z,4.20
2023-02-28T03:39:17.742Z,8.30
2023-02-28T03:40:17.914Z,6.10
2023-02-28T03:41:18.083Z,5.50
2023-02-28T03:42:18.262Z,5.00
2023-02-28T03:43:18.441Z,5.40
2023-02-28T03:44:18.582Z,4.70
2023-02-28T03:45:18.754Z,4.70
2023-02-28T03:46:18.957Z,4.80
2023-02-28T03:47:19.084Z,4.80
2023-02-28T03:48:19.297Z,8.70
2023-02-28T03:49:19.453Z,6.50
2023-02-28T03:50:19.621Z,7.60
2023-02-28T03:51:19.791Z,7.30
2023-02-28T03:52:19.961Z,8.40
2023-02-28T03:53:20.133Z,5.10
2023-02-28T03:54:20.299Z,5.40
2023-02-28T03:55:20.475Z,5.60
2023-02-28T03:56:20.655Z,4.90
2023-02-28T03:57:20.821Z,5.20
2023-02-28T03:58:21.016Z,7.90
2023-02-28T03:59:21.169Z,6.90
2023-02-28T04:00:21.367Z,6.90
2023-02-28T04:01:21.534Z,6.10
2023-02-28T04:02:21.707Z,8.00
2023-02-28T04:03:21.888Z,4.70
2023-02-28T04:04:22.094Z,4.00
2023-02-28T04:05:22.291Z,10.60
2023-02-28T04:06:22.417Z,7.30
2023-02-28T04:07:22.588Z,8.70
2023-02-28T04:08:22.767Z,5.60
2023-02-28T04:09:22.959Z,6.40
2023-02-28T04:10:23.109Z,4.60
2023-02-28T04:11:23.285Z,5.80
2023-02-28T04:12:23.449Z,6.70
2023-02-28T04:13:23.634Z,6.10
2023-02-28T04:14:23.812Z,5.10
2023-02-28T04:15:23.965Z,8.00
2023-02-28T04:16:34.528Z,8.10
2023-02-28T04:17:25.303Z,7.00
2023-02-28T04:18:24.486Z,8.50
2023-02-28T04:19:24.645Z,6.70
2023-02-28T04:20:24.846Z,5.10
2023-02-28T04:21:26.807Z,7.00
2023-02-28T04:22:25.209Z,8.20
2023-02-28T04:23:25.378Z,4.60
2023-02-28T04:24:25.551Z,8.00
2023-02-28T04:25:25.745Z,5.20
2023-02-28T04:26:25.885Z,6.80
2023-02-28T04:27:26.045Z,9.20
2023-02-28T04:28:26.238Z,4.80
2023-02-28T04:29:26.405Z,7.10
2023-02-28T04:30:26.575Z,7.30
2023-02-28T04:31:27.016Z,6.10
2023-02-28T04:32:26.953Z,6.80
2023-02-28T04:33:27.095Z,7.50
2023-02-28T04:34:27.264Z,6.90
2023-02-28T04:35:27.462Z,7.60
2023-02-28T04:36:27.621Z,8.80
2023-02-28T04:37:27.784Z,6.20
2023-02-28T04:38:27.978Z,5.40
2023-02-28T04:39:28.144Z,7.10
2023-02-28T04:40:28.317Z,5.60
2023-02-28T04:41:31.663Z,6.30
2023-02-28T04:42:28.664Z,6.10
2023-02-28T04:43:28.851Z,7.60
2023-02-28T04:44:29.024Z,5.70
2023-02-28T04:45:29.220Z,6.90
2023-02-28T04:46:29.364Z,7.70
2023-02-28T04:47:29.531Z,7.90
2023-02-28T04:48:29.736Z,8.70
2023-02-28T04:49:29.900Z,6.10
2023-02-28T04:50:30.075Z,4.80
2023-02-28T04:51:30.592Z,7.00
2023-02-28T04:52:30.421Z,7.60
2023-02-28T04:53:30.606Z,5.30
2023-02-28T04:54:30.802Z,6.70
2023-02-28T04:55:30.932Z,8.90
2023-02-28T04:56:31.108Z,6.40
2023-02-28T04:57:31.276Z,6.30
2023-02-28T04:58:31.469Z,7.80
2023-02-28T04:59:31.634Z,7.80
2023-02-28T05:00:31.805Z,5.30
2023-02-28T05:01:32.301Z,10.30
2023-02-28T05:02:32.232Z,7.10
2023-02-28T05:03:32.349Z,8.20
2023-02-28T05:04:32.551Z,7.10
2023-02-28T05:05:32.665Z,8.90
2023-02-28T05:06:32.847Z,6.20
2023-02-28T05:07:33.013Z,6.90
2023-02-28T05:08:33.229Z,5.30
2023-02-28T05:09:33.334Z,7.60
2023-02-28T05:10:33.503Z,7.90
2023-02-28T05:11:33.672Z,6.80
2023-02-28T05:12:33.843Z,7.30
2023-02-28T05:13:34.024Z,7.80
2023-02-28T05:14:34.206Z,7.50
2023-02-28T05:15:35.706Z,4.40
2023-02-28T05:16:34.550Z,5.90
2023-02-28T05:17:34.715Z,5.60
2023-02-28T05:18:34.955Z,8.40
2023-02-28T05:19:35.035Z,10.30
2023-02-28T05:20:35.209Z,7.90
2023-02-28T05:21:35.377Z,7.60
2023-02-28T05:22:35.542Z,6.40
2023-02-28T05:23:35.731Z,11.20
2023-02-28T05:24:35.880Z,7.40
2023-02-28T05:25:36.048Z,9.10
2023-02-28T05:26:36.231Z,8.40
2023-02-28T05:27:36.390Z,5.60
2023-02-28T05:28:36.571Z,10.60
2023-02-28T05:29:36.722Z,8.20
2023-02-28T05:30:36.889Z,8.40
2023-02-28T05:31:37.128Z,6.50
2023-02-28T05:32:37.286Z,11.00
2023-02-28T05:33:37.418Z,7.70
2023-02-28T05:34:37.570Z,7.20
2023-02-28T05:35:37.780Z,9.00
2023-02-28T05:36:37.948Z,7.40
2023-02-28T05:37:38.098Z,8.00
2023-02-28T05:38:39.040Z,6.70
2023-02-28T05:39:38.440Z,8.10
2023-02-28T05:40:38.628Z,7.80
2023-02-28T05:41:38.807Z,11.70
2023-02-28T05:42:38.977Z,12.90
2023-02-28T05:43:39.159Z,6.30
2023-02-28T05:44:39.307Z,6.90
2023-02-28T05:45:39.479Z,6.40
2023-02-28T05:46:39.727Z,8.60
2023-02-28T05:47:39.864Z,7.90
2023-02-28T05:48:40.088Z,7.40
2023-02-28T05:49:40.195Z,8.20
2023-02-28T05:50:40.395Z,6.00
2023-02-28T05:51:40.564Z,5.40
2023-02-28T05:52:40.703Z,6.80
2023-02-28T05:53:40.888Z,7.30
2023-02-28T05:54:41.058Z,8.00
2023-02-28T05:55:41.255Z,9.40
2023-02-28T05:56:41.397Z,7.10
2023-02-28T05:57:41.587Z,8.10
2023-02-28T05:58:41.766Z,6.60
2023-02-28T05:59:41.917Z,7.70
2023-02-28T06:00:42.454Z,6.80
2023-02-28T06:01:42.284Z,7.50
2023-02-28T06:02:42.455Z,7.60
2023-02-28T06:03:42.712Z,7.10
2023-02-28T06:04:42.807Z,10.20
2023-02-28T06:05:42.997Z,7.10
2023-02-28T06:06:43.174Z,7.20
2023-02-28T06:07:43.354Z,6.70
2023-02-28T06:08:43.538Z,8.40
2023-02-28T06:09:43.716Z,5.70
2023-02-28T06:10:43.889Z,8.20
2023-02-28T06:11:44.068Z,7.40
2023-02-28T06:12:44.327Z,6.90
2023-02-28T06:13:44.432Z,5.60
2023-02-28T06:14:44.567Z,5.70
2023-02-28T06:15:44.754Z,7.90
2023-02-28T06:16:44.981Z,16.40
2023-02-28T06:17:45.098Z,7.30
2023-02-28T06:18:45.304Z,6.70
2023-02-28T06:19:45.440Z,7.90
2023-02-28T06:20:45.618Z,7.60
2023-02-28T06:21:45.806Z,8.50
2023-02-28T06:22:45.968Z,8.00
2023-02-28T06:23:46.168Z,8.50
2023-02-28T06:24:46.326Z,7.00
2023-02-28T06:25:46.490Z,6.90
2023-02-28T06:26:46.647Z,6.00
2023-02-28T06:27:46.847Z,8.90
2023-02-28T06:28:47.016Z,5.70
2023-02-28T06:29:47.176Z,6.80
2023-02-28T06:30:47.358Z,7.20
2023-02-28T06:31:47.591Z,5.70
2023-02-28T06:32:47.697Z,6.60
2023-02-28T06:33:47.886Z,7.50
2023-02-28T06:34:48.039Z,7.20
2023-02-28T06:35:48.226Z,9.60
2023-02-28T06:36:48.367Z,7.10
2023-02-28T06:37:48.566Z,4.40
2023-02-28T06:38:48.735Z,8.40
2023-02-28T06:39:48.895Z,6.80
2023-02-28T06:40:49.045Z,6.50
2023-02-28T06:41:55.313Z,9.00
2023-02-28T06:42:50.407Z,5.30
2023-02-28T06:43:49.636Z,7.90
2023-02-28T06:44:49.769Z,6.80
2023-02-28T06:45:50.113Z,6.60
2023-02-28T06:46:50.122Z,7.90
2023-02-28T06:47:50.315Z,6.80
2023-02-28T06:48:50.525Z,8.00
2023-02-28T06:49:50.687Z,11.00
2023-02-28T06:50:50.855Z,10.20
2023-02-28T06:51:51.034Z,7.50
2023-02-28T06:52:51.215Z,9.40
2023-02-28T06:53:51.417Z,5.80
2023-02-28T06:54:51.565Z,6.50
2023-02-28T06:55:51.748Z,5.90
2023-02-28T06:56:51.933Z,7.80
2023-02-28T06:57:52.099Z,6.60
2023-02-28T06:58:52.284Z,7.40
2023-02-28T06:59:52.446Z,9.70
2023-02-28T07:00:52.639Z,8.30
2023-02-28T07:01:52.853Z,8.60
2023-02-28T07:02:53.016Z,6.60
2023-02-28T07:03:53.319Z,7.30
2023-02-28T07:04:53.420Z,9.80
2023-02-28T07:05:53.530Z,7.20
2023-02-28T07:06:53.737Z,5.90
2023-02-28T07:07:53.900Z,7.90
2023-02-28T07:08:54.109Z,7.80
2023-02-28T07:09:54.290Z,8.60
2023-02-28T07:10:54.465Z,8.10
2023-02-28T07:11:54.750Z,6.70
2023-02-28T07:12:54.839Z,8.20
2023-02-28T07:13:55.029Z,6.00
2023-02-28T07:14:55.184Z,6.20
2023-02-28T07:15:55.465Z,7.70
2023-02-28T07:16:55.526Z,5.70
2023-02-28T07:17:55.698Z,4.70
2023-02-28T07:18:55.890Z,6.20
2023-02-28T07:19:56.042Z,4.60
2023-02-28T07:20:56.224Z,5.80
2023-02-28T07:21:56.397Z,5.30
2023-02-28T07:22:56.554Z,6.50
2023-02-28T07:23:56.733Z,6.70
2023-02-28T07:24:56.903Z,5.90
2023-02-28T07:25:57.092Z,6.70
2023-02-28T07:26:57.272Z,5.40
2023-02-28T07:27:57.471Z,4.70
2023-02-28T07:28:57.633Z,9.20
2023-02-28T07:29:57.829Z,5.90
2023-02-28T07:30:57.975Z,5.90
2023-02-28T07:31:58.203Z,4.00
2023-02-28T07:32:58.299Z,6.30
2023-02-28T07:33:58.472Z,7.30
2023-02-28T07:34:58.632Z,4.00
2023-02-28T07:35:58.828Z,4.80
2023-02-28T07:36:58.952Z,5.50
2023-02-28T07:37:59.122Z,4.50
2023-02-28T07:38:59.316Z,7.20
2023-02-28T07:39:59.485Z,4.50
2023-02-28T07:40:59.652Z,4.10
2023-02-28T07:41:59.837Z,5.80
2023-02-28T07:43:00.027Z,5.20
2023-02-28T07:44:00.213Z,5.80
2023-02-28T07:45:00.365Z,6.60
2023-02-28T07:46:00.573Z,8.30
2023-02-28T07:47:00.774Z,4.50
2023-02-28T07:48:00.907Z,3.70
2023-02-28T07:49:01.113Z,10.20
2023-02-28T07:50:01.281Z,3.70
2023-02-28T07:51:01.446Z,4.30
2023-02-28T07:52:01.612Z,4.30
2023-02-28T07:53:01.784Z,6.40
2023-02-28T07:54:01.985Z,4.30
2023-02-28T07:55:02.090Z,5.60
2023-02-28T07:56:02.289Z,4.40
2023-02-28T07:57:02.461Z,4.20
2023-02-28T07:58:02.618Z,3.90
2023-02-28T07:59:02.816Z,4.80
2023-02-28T08:00:03.011Z,6.30
2023-02-28T08:01:03.159Z,6.20
2023-02-28T08:02:03.416Z,4.70
2023-02-28T08:03:03.537Z,9.40
2023-02-28T08:04:03.752Z,8.70
2023-02-28T08:05:03.955Z,5.20
2023-02-28T08:06:04.080Z,4.20
2023-02-28T08:07:04.256Z,4.10
2023-02-28T08:08:04.439Z,3.60
2023-02-28T08:09:04.619Z,3.90
2023-02-28T08:10:04.838Z,3.60
2023-02-28T08:11:04.992Z,2.70
2023-02-28T08:12:05.165Z,3.60
2023-02-28T08:13:05.346Z,5.20
2023-02-28T08:14:05.547Z,3.70
2023-02-28T08:15:05.714Z,5.80
2023-02-28T08:16:05.956Z,4.70
2023-02-28T08:17:06.027Z,4.50
2023-02-28T08:18:06.185Z,5.00
2023-02-28T08:19:06.372Z,4.30
2023-02-28T08:20:06.581Z,4.00
2023-02-28T08:21:06.738Z,5.90
2023-02-28T08:22:06.883Z,3.40
2023-02-28T08:23:07.048Z,4.30
2023-02-28T08:24:07.220Z,3.70
2023-02-28T08:25:07.357Z,4.00
2023-02-28T08:26:07.529Z,5.70
2023-02-28T08:27:07.719Z,5.70
2023-02-28T08:28:07.908Z,4.40
2023-02-28T08:29:08.108Z,6.50
2023-02-28T08:30:08.265Z,3.30
2023-02-28T08:31:08.503Z,3.10
2023-02-28T08:32:14.716Z,3.90
2023-02-28T08:33:09.816Z,3.20
2023-02-28T08:34:08.947Z,2.90
2023-02-28T08:35:09.097Z,2.70
2023-02-28T08:36:09.274Z,3.10
2023-02-28T08:37:09.428Z,3.00
2023-02-28T08:38:09.601Z,3.50
2023-02-28T08:39:09.780Z,3.00
2023-02-28T08:40:09.941Z,3.30
2023-02-28T08:41:10.148Z,2.30
2023-02-28T08:42:10.315Z,4.30
2023-02-28T08:43:10.468Z,2.20
2023-02-28T08:44:10.765Z,4.40
2023-02-28T08:45:10.827Z,2.20
2023-02-28T08:46:11.030Z,2.00
2023-02-28T08:47:11.163Z,1.70
2023-02-28T08:48:11.329Z,1.90
2023-02-28T08:49:11.543Z,2.60
2023-02-28T08:50:11.697Z,2.50
2023-02-28T08:51:11.995Z,2.10
2023-02-28T08:52:12.071Z,3.30
2023-02-28T08:53:12.231Z,3.00
2023-02-28T08:54:12.744Z,1.30
2023-02-28T08:55:12.598Z,2.30
2023-02-28T08:56:12.787Z,1.90
2023-02-28T08:57:12.913Z,2.10
2023-02-28T08:58:13.105Z,1.50
2023-02-28T08:59:13.264Z,2.00
2023-02-28T09:00:13.444Z,1.00
2023-02-28T09:01:13.755Z,2.10
2023-02-28T09:02:13.790Z,1.50
2023-02-28T09:03:13.972Z,1.80
2023-02-28T09:04:17.117Z,2.00
2023-02-28T09:05:15.326Z,2.50
2023-02-28T09:06:14.523Z,1.20
2023-02-28T09:07:14.634Z,1.00
2023-02-28T09:08:14.806Z,1.20
2023-02-28T09:09:14.986Z,1.00
2023-02-28T09:10:15.134Z,0.50
2023-02-28T09:11:15.316Z,2.30
2023-02-28T09:12:15.524Z,4.20
2023-02-28T09:13:15.693Z,0.50
2023-02-28T09:14:15.874Z,1.40
2023-02-28T09:15:16.026Z,1.30
2023-02-28T09:16:16.296Z,1.40
2023-02-28T09:17:16.461Z,1.60
2023-02-28T09:18:16.555Z,1.80
2023-02-28T09:19:16.762Z,2.90
2023-02-28T09:20:16.915Z,1.80
2023-02-28T09:21:17.096Z,2.20
2023-02-28T09:22:17.255Z,1.50
2023-02-28T09:23:17.419Z,3.70
2023-02-28T09:24:17.644Z,1.90
2023-02-28T09:25:17.742Z,0.70
2023-02-28T09:26:17.935Z,2.90
2023-02-28T09:27:18.102Z,3.40
2023-02-28T09:28:18.268Z,1.10
2023-02-28T09:29:18.438Z,1.30
2023-02-28T09:30:18.596Z,1.20
2023-02-28T09:31:18.923Z,1.30
2023-02-28T09:32:19.107Z,1.40
2023-02-28T09:33:19.137Z,3.50
2023-02-28T09:34:19.351Z,2.10
2023-02-28T09:35:19.486Z,0.70
2023-02-28T09:36:19.763Z,1.60
2023-02-28T09:37:19.917Z,0.90
2023-02-28T09:38:20.057Z,1.20
2023-02-28T09:39:20.271Z,2.20
2023-02-28T09:40:20.443Z,2.60
2023-02-28T09:41:20.606Z,1.20
2023-02-28T09:42:20.750Z,0.50
2023-02-28T09:43:20.980Z,0.90
2023-02-28T09:44:21.123Z,2.30
2023-02-28T09:45:21.269Z,1.30
2023-02-28T09:46:21.544Z,2.10
2023-02-28T09:47:21.659Z,1.30
2023-02-28T09:48:21.819Z,4.00
2023-02-28T09:49:22.030Z,1.70
2023-02-28T09:50:22.337Z,1.70
2023-02-28T09:51:22.331Z,2.00
2023-02-28T09:52:22.544Z,1.20
2023-02-28T09:53:22.689Z,2.20
2023-02-28T09:54:22.906Z,3.40
2023-02-28T09:55:23.061Z,2.60
2023-02-28T09:56:23.252Z,1.30
2023-02-28T09:57:23.443Z,1.90
2023-02-28T09:58:23.629Z,3.10
2023-02-28T09:59:23.831Z,3.40
2023-02-28T10:00:24.062Z,1.70
2023-02-28T10:01:24.152Z,0.80
2023-02-28T10:02:24.325Z,1.80
2023-02-28T10:03:24.493Z,1.20
2023-02-28T10:04:24.748Z,1.00
2023-02-28T10:05:24.844Z,1.20
2023-02-28T10:06:25.083Z,1.90
2023-02-28T10:07:25.220Z,2.40
2023-02-28T10:08:25.462Z,1.10
2023-02-28T10:09:25.555Z,2.30
2023-02-28T10:10:25.694Z,4.30
2023-02-28T10:11:25.888Z,1.70
2023-02-28T10:12:26.042Z,3.00
2023-02-28T10:13:26.256Z,2.20
2023-02-28T10:14:26.391Z,1.00
2023-02-28T10:15:26.565Z,2.10
2023-02-28T10:16:26.728Z,1.40
2023-02-28T10:17:26.914Z,2.30
2023-02-28T10:18:27.097Z,2.20
2023-02-28T10:19:27.251Z,1.80
2023-02-28T10:20:27.494Z,2.40
2023-02-28T10:21:27.586Z,1.90
2023-02-28T10:22:27.771Z,2.90
2023-02-28T10:23:27.995Z,1.40
2023-02-28T10:24:28.170Z,1.90
2023-02-28T10:25:28.346Z,2.40
2023-02-28T10:26:28.801Z,3.40
2023-02-28T10:27:28.700Z,0.70
2023-02-28T10:28:28.899Z,2.10
2023-02-28T10:29:29.073Z,1.70
2023-02-28T10:30:29.253Z,1.60
2023-02-28T10:31:29.493Z,1.30
2023-02-28T10:32:29.602Z,1.50
2023-02-28T10:33:29.846Z,7.70
2023-02-28T10:34:29.984Z,1.30
2023-02-28T10:35:30.162Z,1.90
2023-02-28T10:36:30.597Z,1.60
2023-02-28T10:37:30.506Z,2.40
2023-02-28T10:38:30.711Z,3.00
2023-02-28T10:39:30.886Z,3.60
2023-02-28T10:40:31.067Z,1.10
2023-02-28T10:41:31.223Z,0.70
2023-02-28T10:42:31.387Z,0.90
2023-02-28T10:43:31.564Z,2.20
2023-02-28T10:44:31.740Z,4.50
2023-02-28T10:45:31.902Z,1.90
2023-02-28T10:46:32.485Z,2.30
2023-02-28T10:47:32.282Z,2.80
2023-02-28T10:48:32.446Z,2.00
2023-02-28T10:49:32.660Z,2.30
2023-02-28T10:50:32.822Z,1.20
2023-02-28T10:51:32.992Z,2.60
2023-02-28T10:52:33.163Z,1.40
2023-02-28T10:53:36.133Z,1.80
2023-02-28T10:54:34.559Z,3.10
2023-02-28T10:55:33.694Z,1.50
2023-02-28T10:56:34.300Z,1.90
2023-02-28T10:57:34.032Z,2.10
2023-02-28T10:58:34.182Z,4.40
2023-02-28T10:59:34.347Z,3.50
2023-02-28T11:00:34.553Z,2.40
2023-02-28T11:01:35.064Z,2.20
2023-02-28T11:03:35.079Z,1.00
2023-02-28T11:04:35.288Z,2.50
2023-02-28T11:05:35.447Z,1.50
2023-02-28T11:06:35.639Z,3.20
2023-02-28T11:07:50.582Z,1.50
2023-02-28T11:08:37.011Z,1.90
2023-02-28T11:09:36.228Z,2.60
2023-02-28T11:10:36.369Z,1.40
2023-02-28T11:11:36.555Z,1.50
2023-02-28T11:12:43.392Z,1.80
2023-02-28T11:13:37.899Z,2.20
2023-02-28T11:14:37.078Z,1.50
2023-02-28T11:15:37.247Z,2.80
2023-02-28T11:16:37.411Z,1.20
2023-02-28T11:17:37.605Z,1.90
2023-02-28T11:18:37.784Z,4.10
2023-02-28T11:19:38.014Z,3.10
2023-02-28T11:20:38.148Z,2.20
2023-02-28T11:21:38.313Z,0.70
2023-02-28T11:22:38.473Z,2.10
2023-02-28T11:23:38.661Z,1.00
2023-02-28T11:24:38.852Z,1.60
2023-02-28T11:25:39.044Z,3.20
2023-02-28T11:26:39.192Z,2.30
2023-02-28T11:27:39.373Z,2.30
2023-02-28T11:28:39.562Z,2.10
2023-02-28T11:29:39.743Z,3.40
2023-02-28T11:30:39.917Z,0.70
2023-02-28T11:31:40.119Z,1.30
2023-02-28T11:32:40.314Z,4.90
2023-02-28T11:33:40.434Z,2.10
2023-02-28T11:34:40.619Z,1.30
2023-02-28T11:35:40.832Z,1.10
2023-02-28T11:36:40.973Z,3.80
2023-02-28T11:37:41.131Z,2.80
2023-02-28T11:38:41.318Z,3.40
2023-02-28T11:39:41.500Z,1.60
2023-02-28T11:40:41.660Z,1.90
2023-02-28T11:41:41.860Z,1.10
2023-02-28T11:42:42.044Z,2.50
2023-02-28T11:43:42.215Z,1.30
2023-02-28T11:44:42.389Z,4.40
2023-02-28T11:45:42.552Z,3.40
2023-02-28T11:46:42.772Z,1.20
2023-02-28T11:47:42.910Z,1.10
2023-02-28T11:48:43.074Z,4.10
2023-02-28T11:49:43.263Z,1.20
2023-02-28T11:50:43.421Z,2.50
2023-02-28T11:51:43.614Z,2.20
2023-02-28T11:52:43.752Z,0.90
2023-02-28T11:53:43.939Z,1.10
2023-02-28T11:54:44.154Z,1.60
2023-02-28T11:55:44.290Z,1.90
2023-02-28T11:56:44.475Z,3.20
2023-02-28T11:57:44.641Z,1.70
2023-02-28T11:58:46.716Z,4.10
2023-02-28T11:59:45.017Z,2.90
2023-02-28T12:00:45.174Z,3.70
2023-02-28T12:01:45.340Z,4.50
2023-02-28T12:02:45.664Z,4.40
2023-02-28T12:03:45.719Z,4.90
2023-02-28T12:04:45.908Z,3.90
2023-02-28T12:05:46.078Z,6.20
2023-02-28T12:06:47.975Z,3.50
2023-02-28T12:07:46.409Z,5.60
2023-02-28T12:08:46.598Z,2.90
2023-02-28T12:09:46.807Z,2.40
2023-02-28T12:10:46.972Z,1.80
2023-02-28T12:11:47.162Z,1.30
2023-02-28T12:12:47.338Z,2.00
2023-02-28T12:13:47.541Z,1.40
2023-02-28T12:14:47.728Z,1.90
2023-02-28T12:15:47.879Z,3.80
2023-02-28T12:16:48.042Z,5.10
2023-02-28T12:17:48.209Z,2.20
2023-02-28T12:18:48.390Z,2.20
2023-02-28T12:19:48.578Z,3.10
2023-02-28T12:20:48.746Z,1.70
2023-02-28T12:21:48.900Z,2.20
2023-02-28T12:22:49.099Z,1.30
2023-02-28T12:23:49.301Z,3.10
2023-02-28T12:24:49.473Z,3.20
2023-02-28T12:25:49.641Z,2.40
2023-02-28T12:26:49.809Z,1.70
2023-02-28T12:27:49.970Z,0.80
2023-02-28T12:28:50.186Z,5.20
2023-02-28T12:29:50.347Z,2.30
2023-02-28T12:30:50.517Z,1.60
2023-02-28T12:31:50.827Z,1.90
2023-02-28T12:32:50.914Z,4.70
2023-02-28T12:33:51.059Z,1.60
2023-02-28T12:34:51.235Z,2.00
2023-02-28T12:35:51.462Z,1.20
2023-02-28T12:36:51.596Z,4.70
2023-02-28T12:37:51.743Z,2.00
2023-02-28T12:38:51.903Z,3.60
2023-02-28T12:39:52.101Z,2.60
2023-02-28T12:40:52.284Z,1.90
2023-02-28T12:41:52.573Z,2.10
2023-02-28T12:42:52.638Z,1.90
2023-02-28T12:43:52.770Z,2.40
2023-02-28T12:44:52.975Z,2.80
2023-02-28T12:45:53.246Z,1.90
2023-02-28T12:46:53.348Z,1.30
2023-02-28T12:47:53.496Z,1.60
2023-02-28T12:48:53.706Z,2.20
2023-02-28T12:49:53.864Z,1.60
2023-02-28T12:50:54.036Z,6.80
2023-02-28T12:51:54.184Z,1.70
2023-02-28T12:52:54.393Z,3.40
2023-02-28T12:53:54.553Z,3.20
2023-02-28T12:54:54.715Z,2.20
2023-02-28T12:55:54.892Z,1.70
2023-02-28T12:56:55.053Z,1.40
2023-02-28T12:57:55.212Z,2.30
2023-02-28T12:58:55.392Z,6.30
2023-02-28T12:59:55.559Z,3.50
2023-02-28T13:00:55.844Z,6.30
2023-02-28T13:01:55.931Z,1.60
2023-02-28T13:02:56.126Z,1.50
2023-02-28T13:03:56.292Z,1.90
2023-02-28T13:04:56.456Z,2.00
2023-02-28T13:05:56.633Z,1.60
2023-02-28T13:06:56.789Z,1.40
2023-02-28T13:07:56.960Z,2.10
2023-02-28T13:08:57.146Z,2.20
2023-02-28T13:09:57.344Z,2.40
2023-02-28T13:10:57.603Z,2.60
2023-02-28T13:11:57.709Z,3.90
2023-02-28T13:12:57.895Z,2.70
2023-02-28T13:13:58.058Z,3.40
2023-02-28T13:14:58.237Z,3.70
2023-02-28T13:15:58.424Z,2.10
2023-02-28T13:16:58.636Z,3.10
2023-02-28T13:17:58.778Z,1.90
2023-02-28T13:18:58.938Z,2.30
2023-02-28T13:19:59.102Z,3.50
2023-02-28T13:20:59.308Z,2.70